KALW

Walla Walla Regional Airport

Walla Walla, Washington, USA
METAR KALW 162353Z 07003KT 5SM BR CLR 01/M01 A3027 RMK AO2 SLP263 T00061011 10022 20006 55004
Observed Flight Rules
Dec-16 @ 23:53 UTC (31 minutes ago) Marginal Visual Flight Rules
Wind Visibility Clouds Conditions
70° at 3 knots 5 miles
  • Clear skies
  • Mist
Temperatures Readings
Current 1°C / 34°F
Dewpoint -1°C / 30°F
Humidity 87%
Altimeter 30.27" Hg
Pressure 1026.3 hPa
Elevation 363
METAR KALW 162353Z 07003KT 5SM BR CLR 01/M01 A3027 RMK AO2 SLP263 T00061011 10022 20006 55004
Observed Flight Rules
Dec-16 @ 23:53 UTC
(31 minutes ago)
MVFR
Wind Visibility
70° at 3 knots 5 miles
Clouds
  • Clear skies
Conditions
  • Mist
Temperature Dewpoint
1°C / 34°F -1°C / 30°F
Humidity Altimeter Pressure
87% 30.27" Hg 1026.3 hPa